sensor_id;sensor_type;location;lat;lon;timestamp;P1;durP1;ratioP1;P2;durP2;ratioP2
69463;SDS011;56665;41.106;16.688;2023-08-20T00:01:33;15.52;;;10.90;;
69463;SDS011;56665;41.106;16.688;2023-08-20T00:04:37;14.98;;;11.27;;
69463;SDS011;56665;41.106;16.688;2023-08-20T00:07:40;14.70;;;11.40;;
69463;SDS011;56665;41.106;16.688;2023-08-20T00:10:45;13.25;;;11.25;;
69463;SDS011;56665;41.106;16.688;2023-08-20T00:13:50;17.23;;;11.57;;
69463;SDS011;56665;41.106;16.688;2023-08-20T00:16:54;14.55;;;11.30;;
69463;SDS011;56665;41.106;16.688;2023-08-20T00:19:58;17.15;;;11.77;;
69463;SDS011;56665;41.106;16.688;2023-08-20T00:23:03;15.75;;;11.25;;
69463;SDS011;56665;41.106;16.688;2023-08-20T00:26:07;15.63;;;11.00;;
69463;SDS011;56665;41.106;16.688;2023-08-20T00:29:11;15.38;;;11.45;;
69463;SDS011;56665;41.106;16.688;2023-08-20T00:32:15;15.00;;;11.13;;
69463;SDS011;56665;41.106;16.688;2023-08-20T00:35:19;15.45;;;10.80;;
69463;SDS011;56665;41.106;16.688;2023-08-20T00:38:23;15.40;;;11.13;;
69463;SDS011;56665;41.106;16.688;2023-08-20T00:41:27;14.63;;;10.32;;
69463;SDS011;56665;41.106;16.688;2023-08-20T00:44:31;16.40;;;11.85;;
69463;SDS011;56665;41.106;16.688;2023-08-20T00:47:35;14.05;;;10.82;;
69463;SDS011;56665;41.106;16.688;2023-08-20T00:50:40;16.10;;;11.25;;
69463;SDS011;56665;41.106;16.688;2023-08-20T00:53:44;17.00;;;11.07;;
69463;SDS011;56665;41.106;16.688;2023-08-20T00:56:48;16.55;;;11.32;;
69463;SDS011;56665;41.106;16.688;2023-08-20T00:59:53;14.50;;;11.38;;
69463;SDS011;56665;41.106;16.688;2023-08-20T01:02:59;12.43;;;10.10;;
69463;SDS011;56665;41.106;16.688;2023-08-20T01:09:54;16.75;;;11.13;;
69463;SDS011;56665;41.106;16.688;2023-08-20T01:13:07;13.60;;;10.88;;
69463;SDS011;56665;41.106;16.688;2023-08-20T01:16:12;14.63;;;11.02;;
69463;SDS011;56665;41.106;16.688;2023-08-20T01:19:19;16.15;;;11.00;;
69463;SDS011;56665;41.106;16.688;2023-08-20T01:22:46;16.38;;;11.48;;
69463;SDS011;56665;41.106;16.688;2023-08-20T01:29:12;16.98;;;10.77;;
69463;SDS011;56665;41.106;16.688;2023-08-20T01:32:18;14.70;;;11.52;;
69463;SDS011;56665;41.106;16.688;2023-08-20T01:35:24;16.60;;;11.25;;
69463;SDS011;56665;41.106;16.688;2023-08-20T01:38:39;14.57;;;10.20;;
69463;SDS011;56665;41.106;16.688;2023-08-20T01:41:43;15.10;;;11.10;;
69463;SDS011;56665;41.106;16.688;2023-08-20T01:44:48;15.40;;;10.15;;
69463;SDS011;56665;41.106;16.688;2023-08-20T01:47:53;14.57;;;10.95;;
69463;SDS011;56665;41.106;16.688;2023-08-20T01:50:56;16.05;;;10.80;;
69463;SDS011;56665;41.106;16.688;2023-08-20T01:54:03;16.02;;;10.60;;
69463;SDS011;56665;41.106;16.688;2023-08-20T01:57:08;16.23;;;11.20;;
69463;SDS011;56665;41.106;16.688;2023-08-20T02:00:12;15.13;;;11.60;;
69463;SDS011;56665;41.106;16.688;2023-08-20T02:03:19;14.38;;;10.60;;
69463;SDS011;56665;41.106;16.688;2023-08-20T02:06:23;14.02;;;10.82;;
69463;SDS011;56665;41.106;16.688;2023-08-20T02:09:29;16.55;;;9.98;;
69463;SDS011;56665;41.106;16.688;2023-08-20T02:12:32;14.30;;;10.50;;
69463;SDS011;56665;41.106;16.688;2023-08-20T02:15:36;14.60;;;10.55;;
69463;SDS011;56665;41.106;16.688;2023-08-20T02:18:42;15.98;;;11.30;;
69463;SDS011;56665;41.106;16.688;2023-08-20T02:21:45;13.55;;;10.65;;
69463;SDS011;56665;41.106;16.688;2023-08-20T02:24:49;15.25;;;10.75;;
69463;SDS011;56665;41.106;16.688;2023-08-20T02:27:54;13.27;;;10.55;;
69463;SDS011;56665;41.106;16.688;2023-08-20T02:30:57;14.27;;;10.43;;
69463;SDS011;56665;41.106;16.688;2023-08-20T02:34:03;13.85;;;11.00;;
69463;SDS011;56665;41.106;16.688;2023-08-20T02:37:08;14.23;;;10.50;;
69463;SDS011;56665;41.106;16.688;2023-08-20T02:40:12;12.15;;;9.70;;
69463;SDS011;56665;41.106;16.688;2023-08-20T02:43:17;14.35;;;10.90;;
69463;SDS011;56665;41.106;16.688;2023-08-20T02:46:21;15.02;;;10.15;;
69463;SDS011;56665;41.106;16.688;2023-08-20T02:49:25;14.35;;;10.65;;
69463;SDS011;56665;41.106;16.688;2023-08-20T02:52:29;14.13;;;10.50;;
69463;SDS011;56665;41.106;16.688;2023-08-20T02:55:33;13.23;;;10.43;;
69463;SDS011;56665;41.106;16.688;2023-08-20T02:58:39;13.50;;;10.38;;
69463;SDS011;56665;41.106;16.688;2023-08-20T03:01:42;12.77;;;10.32;;
69463;SDS011;56665;41.106;16.688;2023-08-20T03:04:47;14.00;;;10.38;;
69463;SDS011;56665;41.106;16.688;2023-08-20T03:07:50;15.38;;;10.55;;
69463;SDS011;56665;41.106;16.688;2023-08-20T03:10:55;15.15;;;10.23;;
69463;SDS011;56665;41.106;16.688;2023-08-20T03:13:59;13.98;;;10.43;;
69463;SDS011;56665;41.106;16.688;2023-08-20T03:17:03;15.23;;;10.75;;
69463;SDS011;56665;41.106;16.688;2023-08-20T03:20:10;15.77;;;11.02;;
69463;SDS011;56665;41.106;16.688;2023-08-20T03:23:14;15.02;;;10.73;;
69463;SDS011;56665;41.106;16.688;2023-08-20T03:26:17;15.05;;;10.73;;
69463;SDS011;56665;41.106;16.688;2023-08-20T03:29:23;15.48;;;10.55;;
69463;SDS011;56665;41.106;16.688;2023-08-20T03:32:30;14.38;;;10.20;;
69463;SDS011;56665;41.106;16.688;2023-08-20T03:35:34;14.93;;;10.32;;
69463;SDS011;56665;41.106;16.688;2023-08-20T03:38:38;15.25;;;10.38;;
69463;SDS011;56665;41.106;16.688;2023-08-20T03:41:43;12.63;;;10.20;;
69463;SDS011;56665;41.106;16.688;2023-08-20T03:44:47;13.45;;;10.23;;
69463;SDS011;56665;41.106;16.688;2023-08-20T03:47:53;13.85;;;10.05;;
69463;SDS011;56665;41.106;16.688;2023-08-20T03:50:57;12.88;;;10.13;;
69463;SDS011;56665;41.106;16.688;2023-08-20T03:54:01;14.80;;;9.50;;
69463;SDS011;56665;41.106;16.688;2023-08-20T03:57:04;12.63;;;9.40;;
69463;SDS011;56665;41.106;16.688;2023-08-20T04:00:08;16.00;;;10.15;;
69463;SDS011;56665;41.106;16.688;2023-08-20T04:03:19;13.52;;;9.93;;
69463;SDS011;56665;41.106;16.688;2023-08-20T04:06:23;13.27;;;9.55;;
69463;SDS011;56665;41.106;16.688;2023-08-20T04:09:27;13.20;;;9.93;;
69463;SDS011;56665;41.106;16.688;2023-08-20T04:12:31;14.38;;;10.50;;
69463;SDS011;56665;41.106;16.688;2023-08-20T04:15:35;14.20;;;10.13;;
69463;SDS011;56665;41.106;16.688;2023-08-20T04:18:39;13.38;;;10.32;;
69463;SDS011;56665;41.106;16.688;2023-08-20T04:21:43;14.10;;;10.63;;
69463;SDS011;56665;41.106;16.688;2023-08-20T04:24:46;14.75;;;10.43;;
69463;SDS011;56665;41.106;16.688;2023-08-20T04:27:51;13.20;;;10.20;;
69463;SDS011;56665;41.106;16.688;2023-08-20T04:30:55;15.10;;;10.48;;
69463;SDS011;56665;41.106;16.688;2023-08-20T04:34:06;14.77;;;10.18;;
69463;SDS011;56665;41.106;16.688;2023-08-20T04:37:21;13.95;;;10.50;;
69463;SDS011;56665;41.106;16.688;2023-08-20T04:40:25;13.15;;;8.90;;
69463;SDS011;56665;41.106;16.688;2023-08-20T04:43:30;12.57;;;9.43;;
69463;SDS011;56665;41.106;16.688;2023-08-20T04:46:33;13.65;;;9.90;;
69463;SDS011;56665;41.106;16.688;2023-08-20T04:49:39;12.68;;;9.73;;
69463;SDS011;56665;41.106;16.688;2023-08-20T04:52:43;14.23;;;9.60;;
69463;SDS011;56665;41.106;16.688;2023-08-20T04:55:48;13.25;;;9.82;;
69463;SDS011;56665;41.106;16.688;2023-08-20T04:58:51;13.55;;;9.85;;
69463;SDS011;56665;41.106;16.688;2023-08-20T05:02:15;13.43;;;10.13;;
69463;SDS011;56665;41.106;16.688;2023-08-20T05:05:25;15.70;;;10.45;;
69463;SDS011;56665;41.106;16.688;2023-08-20T05:08:29;13.95;;;10.70;;
69463;SDS011;56665;41.106;16.688;2023-08-20T05:11:33;12.63;;;9.75;;
69463;SDS011;56665;41.106;16.688;2023-08-20T05:14:37;13.65;;;10.43;;
69463;SDS011;56665;41.106;16.688;2023-08-20T05:17:40;11.95;;;10.25;;
69463;SDS011;56665;41.106;16.688;2023-08-20T05:20:46;12.45;;;9.68;;
69463;SDS011;56665;41.106;16.688;2023-08-20T05:23:49;11.82;;;9.90;;
69463;SDS011;56665;41.106;16.688;2023-08-20T05:30:10;11.88;;;10.05;;
69463;SDS011;56665;41.106;16.688;2023-08-20T05:33:16;14.10;;;10.40;;
69463;SDS011;56665;41.106;16.688;2023-08-20T05:36:19;12.52;;;9.98;;
69463;SDS011;56665;41.106;16.688;2023-08-20T05:39:24;15.40;;;10.88;;
69463;SDS011;56665;41.106;16.688;2023-08-20T05:42:29;14.68;;;10.38;;
69463;SDS011;56665;41.106;16.688;2023-08-20T05:45:39;14.00;;;10.55;;
69463;SDS011;56665;41.106;16.688;2023-08-20T05:48:45;12.40;;;10.77;;
69463;SDS011;56665;41.106;16.688;2023-08-20T05:51:49;13.27;;;11.18;;
69463;SDS011;56665;41.106;16.688;2023-08-20T05:54:55;13.75;;;10.43;;
69463;SDS011;56665;41.106;16.688;2023-08-20T05:57:59;14.27;;;10.57;;
69463;SDS011;56665;41.106;16.688;2023-08-20T06:01:04;14.70;;;10.50;;
69463;SDS011;56665;41.106;16.688;2023-08-20T06:04:10;12.45;;;10.48;;
69463;SDS011;56665;41.106;16.688;2023-08-20T06:07:13;13.27;;;10.35;;
69463;SDS011;56665;41.106;16.688;2023-08-20T06:10:17;13.75;;;10.43;;
69463;SDS011;56665;41.106;16.688;2023-08-20T06:13:21;13.30;;;10.20;;
69463;SDS011;56665;41.106;16.688;2023-08-20T06:16:25;12.27;;;9.30;;
69463;SDS011;56665;41.106;16.688;2023-08-20T06:19:28;11.15;;;10.02;;
69463;SDS011;56665;41.106;16.688;2023-08-20T06:22:35;13.35;;;11.07;;
69463;SDS011;56665;41.106;16.688;2023-08-20T06:25:40;12.52;;;10.40;;
69463;SDS011;56665;41.106;16.688;2023-08-20T06:28:44;11.90;;;10.15;;
69463;SDS011;56665;41.106;16.688;2023-08-20T06:31:49;16.02;;;10.75;;
69463;SDS011;56665;41.106;16.688;2023-08-20T06:34:54;13.85;;;10.45;;
69463;SDS011;56665;41.106;16.688;2023-08-20T06:37:59;13.45;;;10.52;;
69463;SDS011;56665;41.106;16.688;2023-08-20T06:41:03;12.85;;;10.57;;
69463;SDS011;56665;41.106;16.688;2023-08-20T06:44:11;11.68;;;10.48;;
69463;SDS011;56665;41.106;16.688;2023-08-20T06:47:15;13.23;;;10.75;;
69463;SDS011;56665;41.106;16.688;2023-08-20T06:50:19;11.00;;;9.82;;
69463;SDS011;56665;41.106;16.688;2023-08-20T06:53:22;12.02;;;10.70;;
69463;SDS011;56665;41.106;16.688;2023-08-20T06:56:27;13.70;;;10.38;;
69463;SDS011;56665;41.106;16.688;2023-08-20T06:59:31;13.82;;;11.07;;
69463;SDS011;56665;41.106;16.688;2023-08-20T07:02:35;13.13;;;11.00;;
69463;SDS011;56665;41.106;16.688;2023-08-20T07:05:39;11.93;;;10.73;;
69463;SDS011;56665;41.106;16.688;2023-08-20T07:08:43;12.27;;;10.82;;
69463;SDS011;56665;41.106;16.688;2023-08-20T07:11:48;11.93;;;10.52;;
69463;SDS011;56665;41.106;16.688;2023-08-20T07:14:52;13.05;;;10.77;;
69463;SDS011;56665;41.106;16.688;2023-08-20T07:17:56;13.95;;;11.38;;
69463;SDS011;56665;41.106;16.688;2023-08-20T07:21:00;14.57;;;12.23;;
69463;SDS011;56665;41.106;16.688;2023-08-20T07:24:03;14.43;;;11.50;;
69463;SDS011;56665;41.106;16.688;2023-08-20T07:27:09;12.65;;;10.95;;
69463;SDS011;56665;41.106;16.688;2023-08-20T07:30:15;14.93;;;11.38;;
69463;SDS011;56665;41.106;16.688;2023-08-20T07:33:20;16.15;;;11.63;;
69463;SDS011;56665;41.106;16.688;2023-08-20T07:36:24;13.05;;;10.77;;
69463;SDS011;56665;41.106;16.688;2023-08-20T07:39:28;13.68;;;11.13;;
69463;SDS011;56665;41.106;16.688;2023-08-20T07:42:32;17.83;;;12.35;;
69463;SDS011;56665;41.106;16.688;2023-08-20T07:45:36;14.07;;;11.52;;
69463;SDS011;56665;41.106;16.688;2023-08-20T07:48:40;14.52;;;11.55;;
69463;SDS011;56665;41.106;16.688;2023-08-20T07:51:45;14.65;;;12.75;;
69463;SDS011;56665;41.106;16.688;2023-08-20T07:54:50;13.82;;;11.48;;
69463;SDS011;56665;41.106;16.688;2023-08-20T07:57:53;16.88;;;11.75;;
69463;SDS011;56665;41.106;16.688;2023-08-20T08:00:57;13.43;;;11.95;;
69463;SDS011;56665;41.106;16.688;2023-08-20T08:04:01;13.90;;;12.07;;
69463;SDS011;56665;41.106;16.688;2023-08-20T08:07:05;13.52;;;12.13;;
69463;SDS011;56665;41.106;16.688;2023-08-20T08:10:09;13.48;;;11.32;;
69463;SDS011;56665;41.106;16.688;2023-08-20T08:13:13;13.55;;;12.15;;
69463;SDS011;56665;41.106;16.688;2023-08-20T08:16:18;14.13;;;12.23;;
69463;SDS011;56665;41.106;16.688;2023-08-20T08:19:22;15.25;;;12.25;;
69463;SDS011;56665;41.106;16.688;2023-08-20T08:22:26;13.67;;;12.27;;
69463;SDS011;56665;41.106;16.688;2023-08-20T08:25:31;17.38;;;12.23;;
69463;SDS011;56665;41.106;16.688;2023-08-20T08:28:35;13.82;;;12.43;;
69463;SDS011;56665;41.106;16.688;2023-08-20T08:31:40;16.67;;;13.40;;
69463;SDS011;56665;41.106;16.688;2023-08-20T08:34:44;13.82;;;12.43;;
69463;SDS011;56665;41.106;16.688;2023-08-20T08:37:48;14.13;;;12.07;;
69463;SDS011;56665;41.106;16.688;2023-08-20T08:40:52;13.55;;;12.25;;
69463;SDS011;56665;41.106;16.688;2023-08-20T08:43:57;13.55;;;12.25;;
69463;SDS011;56665;41.106;16.688;2023-08-20T08:47:01;13.38;;;12.05;;
69463;SDS011;56665;41.106;16.688;2023-08-20T08:50:05;13.85;;;12.55;;
69463;SDS011;56665;41.106;16.688;2023-08-20T08:53:10;14.67;;;13.17;;
69463;SDS011;56665;41.106;16.688;2023-08-20T08:56:16;14.95;;;13.43;;
69463;SDS011;56665;41.106;16.688;2023-08-20T08:59:20;15.15;;;13.55;;
69463;SDS011;56665;41.106;16.688;2023-08-20T09:02:24;14.57;;;13.18;;
69463;SDS011;56665;41.106;16.688;2023-08-20T09:05:28;14.57;;;13.07;;
69463;SDS011;56665;41.106;16.688;2023-08-20T09:08:32;14.63;;;13.13;;
69463;SDS011;56665;41.106;16.688;2023-08-20T09:11:37;13.82;;;12.43;;
69463;SDS011;56665;41.106;16.688;2023-08-20T09:14:42;14.65;;;13.10;;
69463;SDS011;56665;41.106;16.688;2023-08-20T09:17:49;14.75;;;13.25;;
69463;SDS011;56665;41.106;16.688;2023-08-20T09:20:53;13.70;;;12.30;;
69463;SDS011;56665;41.106;16.688;2023-08-20T09:23:57;13.93;;;12.70;;
69463;SDS011;56665;41.106;16.688;2023-08-20T09:27:05;14.25;;;12.80;;
69463;SDS011;56665;41.106;16.688;2023-08-20T09:30:13;13.68;;;12.32;;
69463;SDS011;56665;41.106;16.688;2023-08-20T09:33:23;13.85;;;12.35;;
69463;SDS011;56665;41.106;16.688;2023-08-20T09:36:32;15.07;;;13.45;;
69463;SDS011;56665;41.106;16.688;2023-08-20T09:39:37;14.20;;;12.65;;
69463;SDS011;56665;41.106;16.688;2023-08-20T09:42:41;16.60;;;13.00;;
69463;SDS011;56665;41.106;16.688;2023-08-20T09:45:47;14.55;;;13.05;;
69463;SDS011;56665;41.106;16.688;2023-08-20T09:48:51;14.07;;;12.10;;
69463;SDS011;56665;41.106;16.688;2023-08-20T09:52:00;13.90;;;12.13;;
69463;SDS011;56665;41.106;16.688;2023-08-20T09:55:16;14.77;;;12.10;;
69463;SDS011;56665;41.106;16.688;2023-08-20T09:58:26;13.18;;;11.63;;
69463;SDS011;56665;41.106;16.688;2023-08-20T10:01:32;14.18;;;12.20;;
69463;SDS011;56665;41.106;16.688;2023-08-20T10:04:36;14.32;;;10.90;;
69463;SDS011;56665;41.106;16.688;2023-08-20T10:07:40;12.60;;;11.30;;
69463;SDS011;56665;41.106;16.688;2023-08-20T10:10:48;12.80;;;10.55;;
69463;SDS011;56665;41.106;16.688;2023-08-20T10:13:52;13.80;;;11.30;;
69463;SDS011;56665;41.106;16.688;2023-08-20T10:16:56;12.48;;;10.60;;
69463;SDS011;56665;41.106;16.688;2023-08-20T10:20:01;14.27;;;10.40;;
69463;SDS011;56665;41.106;16.688;2023-08-20T10:23:07;13.57;;;10.07;;
69463;SDS011;56665;41.106;16.688;2023-08-20T10:26:15;13.45;;;10.82;;
69463;SDS011;56665;41.106;16.688;2023-08-20T10:29:34;16.17;;;11.13;;
69463;SDS011;56665;41.106;16.688;2023-08-20T10:32:47;13.20;;;11.32;;
69463;SDS011;56665;41.106;16.688;2023-08-20T10:35:53;15.45;;;11.10;;
69463;SDS011;56665;41.106;16.688;2023-08-20T10:38:57;12.07;;;9.85;;
69463;SDS011;56665;41.106;16.688;2023-08-20T10:42:29;11.82;;;10.60;;
69463;SDS011;56665;41.106;16.688;2023-08-20T10:45:42;13.68;;;9.73;;
69463;SDS011;56665;41.106;16.688;2023-08-20T10:48:53;13.57;;;10.20;;
69463;SDS011;56665;41.106;16.688;2023-08-20T10:52:02;11.73;;;10.18;;
69463;SDS011;56665;41.106;16.688;2023-08-20T10:55:09;12.43;;;10.10;;
69463;SDS011;56665;41.106;16.688;2023-08-20T10:58:13;12.35;;;9.98;;
69463;SDS011;56665;41.106;16.688;2023-08-20T11:01:22;13.15;;;10.18;;
69463;SDS011;56665;41.106;16.688;2023-08-20T11:04:31;12.02;;;9.88;;
69463;SDS011;56665;41.106;16.688;2023-08-20T11:07:38;12.15;;;10.95;;
69463;SDS011;56665;41.106;16.688;2023-08-20T11:10:42;16.20;;;11.27;;
69463;SDS011;56665;41.106;16.688;2023-08-20T11:13:48;13.75;;;11.18;;
69463;SDS011;56665;41.106;16.688;2023-08-20T11:16:53;13.55;;;12.15;;
69463;SDS011;56665;41.106;16.688;2023-08-20T11:19:57;13.68;;;12.23;;
69463;SDS011;56665;41.106;16.688;2023-08-20T11:23:01;16.98;;;12.23;;
69463;SDS011;56665;41.106;16.688;2023-08-20T11:26:06;12.65;;;11.35;;
69463;SDS011;56665;41.106;16.688;2023-08-20T11:29:12;14.55;;;11.80;;
69463;SDS011;56665;41.106;16.688;2023-08-20T11:32:19;16.08;;;12.63;;
69463;SDS011;56665;41.106;16.688;2023-08-20T11:35:22;15.77;;;12.77;;
69463;SDS011;56665;41.106;16.688;2023-08-20T11:38:26;13.25;;;11.85;;
69463;SDS011;56665;41.106;16.688;2023-08-20T11:41:30;14.63;;;11.88;;
69463;SDS011;56665;41.106;16.688;2023-08-20T11:44:42;14.60;;;12.25;;
69463;SDS011;56665;41.106;16.688;2023-08-20T11:47:48;13.27;;;11.73;;
69463;SDS011;56665;41.106;16.688;2023-08-20T11:50:53;13.32;;;11.82;;
69463;SDS011;56665;41.106;16.688;2023-08-20T11:54:00;12.98;;;11.65;;
69463;SDS011;56665;41.106;16.688;2023-08-20T11:57:04;14.88;;;11.90;;
69463;SDS011;56665;41.106;16.688;2023-08-20T12:00:10;14.68;;;11.80;;
69463;SDS011;56665;41.106;16.688;2023-08-20T12:03:29;14.93;;;12.90;;
69463;SDS011;56665;41.106;16.688;2023-08-20T12:06:35;13.57;;;11.82;;
69463;SDS011;56665;41.106;16.688;2023-08-20T12:09:41;14.93;;;12.15;;
69463;SDS011;56665;41.106;16.688;2023-08-20T12:12:46;13.10;;;11.80;;
69463;SDS011;56665;41.106;16.688;2023-08-20T12:15:51;14.05;;;12.38;;
69463;SDS011;56665;41.106;16.688;2023-08-20T12:18:56;13.27;;;11.18;;
69463;SDS011;56665;41.106;16.688;2023-08-20T12:21:59;13.88;;;12.13;;
69463;SDS011;56665;41.106;16.688;2023-08-20T12:25:07;13.15;;;11.65;;
69463;SDS011;56665;41.106;16.688;2023-08-20T12:28:10;13.80;;;12.00;;
69463;SDS011;56665;41.106;16.688;2023-08-20T12:31:14;14.10;;;11.60;;
69463;SDS011;56665;41.106;16.688;2023-08-20T12:34:19;16.38;;;12.15;;
69463;SDS011;56665;41.106;16.688;2023-08-20T12:37:29;13.65;;;11.70;;
69463;SDS011;56665;41.106;16.688;2023-08-20T12:40:33;15.80;;;11.95;;
69463;SDS011;56665;41.106;16.688;2023-08-20T12:43:37;13.77;;;11.60;;
69463;SDS011;56665;41.106;16.688;2023-08-20T12:46:40;12.55;;;10.63;;
69463;SDS011;56665;41.106;16.688;2023-08-20T12:49:44;15.95;;;11.32;;
69463;SDS011;56665;41.106;16.688;2023-08-20T12:52:48;15.73;;;11.27;;
69463;SDS011;56665;41.106;16.688;2023-08-20T12:55:53;18.65;;;11.07;;
69463;SDS011;56665;41.106;16.688;2023-08-20T12:58:57;14.93;;;10.23;;
69463;SDS011;56665;41.106;16.688;2023-08-20T13:02:02;11.00;;;9.88;;
69463;SDS011;56665;41.106;16.688;2023-08-20T13:05:07;12.77;;;10.77;;
69463;SDS011;56665;41.106;16.688;2023-08-20T13:08:12;11.57;;;9.52;;
69463;SDS011;56665;41.106;16.688;2023-08-20T13:11:18;11.60;;;8.65;;
69463;SDS011;56665;41.106;16.688;2023-08-20T13:14:23;12.57;;;9.20;;
69463;SDS011;56665;41.106;16.688;2023-08-20T13:17:27;12.35;;;9.55;;
69463;SDS011;56665;41.106;16.688;2023-08-20T13:20:32;12.82;;;9.23;;
69463;SDS011;56665;41.106;16.688;2023-08-20T13:23:36;11.23;;;8.68;;
69463;SDS011;56665;41.106;16.688;2023-08-20T13:26:41;10.38;;;8.10;;
69463;SDS011;56665;41.106;16.688;2023-08-20T13:29:45;10.95;;;8.38;;
69463;SDS011;56665;41.106;16.688;2023-08-20T13:32:49;9.85;;;7.88;;
69463;SDS011;56665;41.106;16.688;2023-08-20T13:35:55;11.75;;;8.73;;
69463;SDS011;56665;41.106;16.688;2023-08-20T13:38:59;8.82;;;7.18;;
69463;SDS011;56665;41.106;16.688;2023-08-20T13:42:04;9.15;;;7.72;;
69463;SDS011;56665;41.106;16.688;2023-08-20T13:45:08;10.65;;;8.15;;
69463;SDS011;56665;41.106;16.688;2023-08-20T13:48:11;10.48;;;7.43;;
69463;SDS011;56665;41.106;16.688;2023-08-20T13:51:15;9.30;;;7.95;;
69463;SDS011;56665;41.106;16.688;2023-08-20T13:54:19;9.60;;;7.35;;
69463;SDS011;56665;41.106;16.688;2023-08-20T13:57:24;8.65;;;7.22;;
69463;SDS011;56665;41.106;16.688;2023-08-20T14:00:27;10.85;;;7.70;;
69463;SDS011;56665;41.106;16.688;2023-08-20T14:03:33;10.52;;;7.20;;
69463;SDS011;56665;41.106;16.688;2023-08-20T14:06:37;8.93;;;6.55;;
69463;SDS011;56665;41.106;16.688;2023-08-20T14:09:41;8.77;;;6.70;;
69463;SDS011;56665;41.106;16.688;2023-08-20T14:12:45;8.63;;;6.40;;
69463;SDS011;56665;41.106;16.688;2023-08-20T14:15:50;9.40;;;6.25;;
69463;SDS011;56665;41.106;16.688;2023-08-20T14:18:57;8.50;;;6.32;;
69463;SDS011;56665;41.106;16.688;2023-08-20T14:22:01;8.25;;;5.85;;
69463;SDS011;56665;41.106;16.688;2023-08-20T14:25:05;8.23;;;6.53;;
69463;SDS011;56665;41.106;16.688;2023-08-20T14:28:09;8.48;;;6.30;;
69463;SDS011;56665;41.106;16.688;2023-08-20T14:31:14;8.20;;;6.30;;
69463;SDS011;56665;41.106;16.688;2023-08-20T14:34:19;7.40;;;6.43;;
69463;SDS011;56665;41.106;16.688;2023-08-20T14:37:23;8.05;;;6.05;;
69463;SDS011;56665;41.106;16.688;2023-08-20T14:40:28;9.32;;;6.97;;
69463;SDS011;56665;41.106;16.688;2023-08-20T14:43:31;9.57;;;7.07;;
69463;SDS011;56665;41.106;16.688;2023-08-20T14:46:38;8.55;;;6.35;;
69463;SDS011;56665;41.106;16.688;2023-08-20T14:49:41;10.40;;;7.25;;
69463;SDS011;56665;41.106;16.688;2023-08-20T14:52:45;9.38;;;6.20;;
69463;SDS011;56665;41.106;16.688;2023-08-20T14:55:54;10.38;;;7.00;;
69463;SDS011;56665;41.106;16.688;2023-08-20T14:59:00;8.75;;;6.60;;
69463;SDS011;56665;41.106;16.688;2023-08-20T15:02:05;9.30;;;7.07;;
69463;SDS011;56665;41.106;16.688;2023-08-20T15:05:09;11.88;;;7.10;;
69463;SDS011;56665;41.106;16.688;2023-08-20T15:08:14;10.43;;;7.10;;
69463;SDS011;56665;41.106;16.688;2023-08-20T15:11:17;8.10;;;6.85;;
69463;SDS011;56665;41.106;16.688;2023-08-20T15:14:21;8.75;;;7.25;;
69463;SDS011;56665;41.106;16.688;2023-08-20T15:17:28;7.90;;;6.55;;
69463;SDS011;56665;41.106;16.688;2023-08-20T15:20:31;8.27;;;7.22;;
69463;SDS011;56665;41.106;16.688;2023-08-20T15:23:35;9.10;;;7.75;;
69463;SDS011;56665;41.106;16.688;2023-08-20T15:26:39;10.95;;;8.30;;
69463;SDS011;56665;41.106;16.688;2023-08-20T15:29:42;9.23;;;8.10;;
69463;SDS011;56665;41.106;16.688;2023-08-20T15:32:46;10.77;;;8.43;;
69463;SDS011;56665;41.106;16.688;2023-08-20T15:35:51;10.02;;;8.10;;
69463;SDS011;56665;41.106;16.688;2023-08-20T15:38:54;11.43;;;8.27;;
69463;SDS011;56665;41.106;16.688;2023-08-20T15:41:58;10.40;;;8.13;;
69463;SDS011;56665;41.106;16.688;2023-08-20T15:45:02;10.70;;;8.50;;
69463;SDS011;56665;41.106;16.688;2023-08-20T15:48:06;10.43;;;8.07;;
69463;SDS011;56665;41.106;16.688;2023-08-20T15:51:10;11.57;;;9.35;;
69463;SDS011;56665;41.106;16.688;2023-08-20T15:54:15;11.85;;;9.50;;
69463;SDS011;56665;41.106;16.688;2023-08-20T15:57:19;11.93;;;9.15;;
69463;SDS011;56665;41.106;16.688;2023-08-20T16:00:24;13.32;;;9.73;;
69463;SDS011;56665;41.106;16.688;2023-08-20T16:03:28;11.15;;;9.60;;
69463;SDS011;56665;41.106;16.688;2023-08-20T16:06:34;13.52;;;9.50;;
69463;SDS011;56665;41.106;16.688;2023-08-20T16:09:38;13.20;;;9.93;;
69463;SDS011;56665;41.106;16.688;2023-08-20T16:12:42;12.35;;;10.15;;
69463;SDS011;56665;41.106;16.688;2023-08-20T16:15:46;13.07;;;9.63;;
69463;SDS011;56665;41.106;16.688;2023-08-20T16:18:51;14.63;;;10.55;;
69463;SDS011;56665;41.106;16.688;2023-08-20T16:21:55;12.18;;;10.23;;
69463;SDS011;56665;41.106;16.688;2023-08-20T16:24:58;14.73;;;11.10;;
69463;SDS011;56665;41.106;16.688;2023-08-20T16:28:04;12.57;;;10.93;;
69463;SDS011;56665;41.106;16.688;2023-08-20T16:31:07;14.30;;;10.90;;
69463;SDS011;56665;41.106;16.688;2023-08-20T16:34:12;16.77;;;11.70;;
69463;SDS011;56665;41.106;16.688;2023-08-20T16:37:19;14.27;;;11.55;;
69463;SDS011;56665;41.106;16.688;2023-08-20T16:40:22;13.73;;;11.10;;
69463;SDS011;56665;41.106;16.688;2023-08-20T16:43:28;18.83;;;11.45;;
69463;SDS011;56665;41.106;16.688;2023-08-20T16:46:31;12.95;;;10.55;;
69463;SDS011;56665;41.106;16.688;2023-08-20T16:49:38;14.05;;;11.32;;
69463;SDS011;56665;41.106;16.688;2023-08-20T16:52:45;13.23;;;10.63;;
69463;SDS011;56665;41.106;16.688;2023-08-20T16:55:52;16.42;;;11.98;;
69463;SDS011;56665;41.106;16.688;2023-08-20T16:58:56;15.90;;;11.55;;
69463;SDS011;56665;41.106;16.688;2023-08-20T17:02:00;14.82;;;11.20;;
69463;SDS011;56665;41.106;16.688;2023-08-20T17:05:04;15.35;;;11.75;;
69463;SDS011;56665;41.106;16.688;2023-08-20T17:08:07;14.02;;;10.57;;
69463;SDS011;56665;41.106;16.688;2023-08-20T17:11:12;12.30;;;10.63;;
69463;SDS011;56665;41.106;16.688;2023-08-20T17:14:18;15.90;;;11.02;;
69463;SDS011;56665;41.106;16.688;2023-08-20T17:17:26;12.13;;;10.48;;
69463;SDS011;56665;41.106;16.688;2023-08-20T17:20:31;13.95;;;11.20;;
69463;SDS011;56665;41.106;16.688;2023-08-20T17:23:37;17.45;;;11.50;;
69463;SDS011;56665;41.106;16.688;2023-08-20T17:26:43;15.18;;;11.25;;
69463;SDS011;56665;41.106;16.688;2023-08-20T17:29:47;15.32;;;11.40;;
69463;SDS011;56665;41.106;16.688;2023-08-20T17:32:52;16.40;;;12.20;;
69463;SDS011;56665;41.106;16.688;2023-08-20T17:35:57;15.55;;;12.10;;
69463;SDS011;56665;41.106;16.688;2023-08-20T17:39:01;17.05;;;13.27;;
69463;SDS011;56665;41.106;16.688;2023-08-20T17:42:07;18.95;;;12.52;;
69463;SDS011;56665;41.106;16.688;2023-08-20T17:45:11;17.63;;;12.32;;
69463;SDS011;56665;41.106;16.688;2023-08-20T17:48:15;18.77;;;12.55;;
69463;SDS011;56665;41.106;16.688;2023-08-20T17:51:19;22.15;;;13.05;;
69463;SDS011;56665;41.106;16.688;2023-08-20T17:54:23;19.13;;;13.27;;
69463;SDS011;56665;41.106;16.688;2023-08-20T17:57:27;20.95;;;13.77;;
69463;SDS011;56665;41.106;16.688;2023-08-20T18:00:30;16.13;;;13.13;;
69463;SDS011;56665;41.106;16.688;2023-08-20T18:03:34;19.23;;;12.90;;